createdAt,value
2022-10-19T05:56:45.335Z,1.42
2022-10-19T06:00:31.135Z,2.33
2022-10-19T06:06:03.683Z,1.80
2022-10-19T06:08:30.603Z,1.63
2022-10-19T06:11:10.559Z,1.05
2022-10-19T06:13:38.083Z,1.40
2022-10-19T06:16:40.326Z,1.50
2022-10-19T06:19:21.120Z,2.27
2022-10-19T06:25:23.572Z,3.90
2022-10-19T06:35:33.807Z,5.07
2022-10-19T06:40:49.345Z,6.00
2022-10-19T06:55:01.320Z,1.60
2022-10-19T06:57:28.660Z,1.88
2022-10-19T06:59:55.657Z,2.08
2022-10-19T07:02:22.119Z,1.70
2022-10-19T07:04:48.654Z,1.80
2022-10-19T07:07:15.139Z,1.85
2022-10-19T07:09:42.708Z,2.33
2022-10-19T07:12:10.858Z,2.13
2022-10-19T07:14:39.534Z,2.13
2022-10-19T07:17:06.967Z,1.57
2022-10-19T07:19:33.858Z,1.58
2022-10-19T07:32:25.420Z,3.23
2022-10-19T07:36:04.145Z,2.92
2022-10-19T07:40:02.553Z,2.05
2022-10-19T08:21:14.896Z,1.83
2022-10-19T08:23:41.974Z,1.90
2022-10-19T08:48:06.197Z,2.53
2022-10-19T08:52:08.548Z,2.22
2022-10-19T09:11:31.575Z,0.98
2022-10-19T09:14:14.929Z,1.10
2022-10-19T09:16:42.587Z,0.93
2022-10-19T09:19:21.981Z,1.33
2022-10-19T09:22:01.446Z,1.10
2022-10-19T09:24:43.991Z,0.88
2022-10-19T09:27:20.350Z,1.17
2022-10-19T09:29:55.501Z,1.75
2022-10-19T09:32:33.832Z,1.10
2022-10-19T09:35:04.109Z,1.70
2022-10-19T09:37:32.777Z,1.90
2022-10-19T09:39:59.318Z,1.77
2022-10-19T09:42:35.169Z,2.40
2022-10-19T09:45:16.388Z,0.98
2022-10-19T09:47:47.707Z,1.08
2022-10-19T09:50:16.463Z,1.80
2022-10-19T09:52:45.397Z,1.00
2022-10-19T09:55:14.973Z,0.63
2022-10-19T09:57:43.897Z,0.65
2022-10-19T10:00:23.202Z,0.70
2022-10-19T10:02:52.728Z,0.80
2022-10-19T10:05:19.952Z,0.80
2022-10-19T10:07:46.577Z,0.50
2022-10-19T10:10:26.837Z,0.40
2022-10-19T10:12:59.239Z,0.45
2022-10-19T10:15:29.401Z,0.30
2022-10-19T10:17:57.890Z,0.20
2022-10-19T10:20:28.418Z,0.50
2022-10-19T10:23:01.264Z,0.30
2022-10-19T10:25:31.367Z,0.20
2022-10-19T10:28:01.918Z,0.57
2022-10-19T10:30:35.078Z,0.20
2022-10-19T10:33:09.377Z,0.20
2022-10-19T10:35:53.717Z,0.30
2022-10-19T10:38:25.491Z,0.20
2022-10-19T10:40:56.623Z,0.13
2022-10-19T10:43:31.317Z,0.30
2022-10-19T10:46:05.558Z,0.38
2022-10-19T10:48:45.678Z,0.50
2022-10-19T10:51:58.887Z,0.20
2022-10-19T10:54:28.159Z,0.20
2022-10-19T11:00:00.805Z,0.40
2022-10-19T11:02:42.580Z,0.20
2022-10-19T11:05:21.707Z,0.32
2022-10-19T11:07:53.415Z,0.60
2022-10-19T11:10:28.269Z,0.30
2022-10-19T11:13:08.533Z,0.95
2022-10-19T11:15:44.597Z,0.28
2022-10-19T11:18:19.166Z,0.30
2022-10-19T11:21:01.226Z,0.40
2022-10-19T11:23:51.599Z,0.30
2022-10-19T11:26:33.700Z,0.30
2022-10-19T11:29:12.346Z,0.30
2022-10-19T11:31:47.387Z,0.20
2022-10-19T11:34:36.492Z,0.60
2022-10-19T11:37:45.486Z,0.33
2022-10-19T11:40:26.700Z,0.30
2022-10-19T11:43:03.271Z,0.20
2022-10-19T11:45:39.360Z,0.20
2022-10-19T11:48:30.884Z,0.20
2022-10-19T11:51:21.903Z,0.27
2022-10-19T11:54:18.297Z,0.20
2022-10-19T11:57:11.441Z,0.30
2022-10-19T12:00:03.576Z,0.47
2022-10-19T12:02:53.644Z,0.30
2022-10-19T12:05:27.903Z,0.50
2022-10-19T12:08:01.765Z,0.82
2022-10-19T12:10:42.667Z,1.25
2022-10-19T12:13:14.642Z,0.30
2022-10-19T12:15:46.693Z,0.30
2022-10-19T12:18:32.046Z,0.33
2022-10-19T12:21:02.911Z,0.30
2022-10-19T12:23:35.433Z,0.50
2022-10-19T12:26:07.405Z,0.40
2022-10-19T12:28:38.713Z,0.30
2022-10-19T12:31:06.883Z,0.60
2022-10-19T12:33:40.937Z,0.30
2022-10-19T12:36:20.022Z,0.30
2022-10-19T12:39:00.075Z,0.30
2022-10-19T12:41:44.275Z,0.30
2022-10-19T12:44:33.016Z,0.50
2022-10-19T12:47:08.462Z,0.30
2022-10-19T12:49:38.385Z,0.32
2022-10-19T12:52:08.922Z,0.57
2022-10-19T12:54:39.958Z,0.30
2022-10-19T12:57:26.293Z,0.40
2022-10-19T13:00:01.647Z,0.73
2022-10-19T13:05:00.616Z,0.40
2022-10-19T13:07:30.718Z,0.40
2022-10-19T13:10:03.282Z,0.60
2022-10-19T13:12:43.660Z,0.45
2022-10-19T13:15:35.647Z,1.08
2022-10-19T13:18:05.807Z,1.95
2022-10-19T13:20:33.810Z,1.10
2022-10-19T13:23:00.272Z,1.00
2022-10-19T13:25:30.620Z,0.90
2022-10-19T13:28:21.659Z,1.33
2022-10-19T13:30:48.324Z,1.30
2022-10-19T13:33:25.987Z,0.60
2022-10-19T13:35:58.514Z,1.00
2022-10-19T13:38:34.043Z,3.35
2022-10-19T13:41:21.763Z,2.00
2022-10-19T13:44:08.598Z,1.25
2022-10-19T13:46:44.068Z,1.08
2022-10-19T13:49:32.537Z,0.43
2022-10-19T13:52:22.127Z,0.80
2022-10-19T13:55:02.796Z,0.70
2022-10-19T13:57:52.934Z,0.60
2022-10-19T14:19:12.652Z,0.80
2022-10-19T15:03:51.561Z,0.40
2022-10-19T15:12:14.090Z,0.70
2022-10-19T15:14:41.161Z,0.50
2022-10-19T15:17:49.630Z,0.95
2022-10-19T15:20:27.675Z,0.73
2022-10-19T15:22:55.264Z,2.78
2022-10-19T15:25:35.465Z,2.67
2022-10-19T15:28:41.634Z,2.80
2022-10-19T15:31:22.805Z,1.27
2022-10-19T15:34:13.333Z,1.90
2022-10-19T15:36:55.631Z,2.58
2022-10-19T15:39:37.699Z,2.97
2022-10-19T15:42:41.793Z,3.25
2022-10-19T15:45:33.834Z,3.03
2022-10-19T15:48:44.289Z,1.95
2022-10-19T15:51:41.674Z,1.80
2022-10-19T15:55:15.282Z,1.90
2022-10-19T15:58:09.678Z,6.47
2022-10-19T16:01:11.310Z,8.98
2022-10-19T16:07:33.821Z,5.80
2022-10-19T16:10:01.892Z,3.27
2022-10-19T16:19:57.952Z,7.97
2022-10-19T16:23:55.566Z,4.97
2022-10-19T16:27:10.505Z,2.40
2022-10-19T16:29:39.265Z,2.55
2022-10-19T16:32:39.964Z,1.63
2022-10-19T16:35:12.346Z,0.82
2022-10-19T16:37:46.551Z,1.13
2022-10-19T16:48:32.788Z,1.10
2022-10-19T16:51:50.924Z,1.15
2022-10-19T16:59:13.422Z,1.53
2022-10-19T17:04:56.913Z,1.83
2022-10-19T17:07:24.397Z,8.55
2022-10-19T17:09:54.504Z,2.45
2022-10-19T17:12:21.648Z,1.40
2022-10-19T17:15:41.345Z,1.58
2022-10-19T17:22:25.841Z,4.40
2022-10-19T17:28:18.306Z,1.73
2022-10-19T17:30:44.893Z,1.45
2022-10-19T17:33:11.384Z,1.65
2022-10-19T17:35:37.899Z,2.00
2022-10-19T17:38:04.509Z,2.25
2022-10-19T17:40:32.175Z,2.00
2022-10-19T17:42:58.687Z,2.50
2022-10-19T17:45:25.341Z,1.98
2022-10-19T17:47:51.878Z,2.22
2022-10-19T17:50:18.489Z,2.20
2022-10-19T17:52:45.037Z,1.97
2022-10-19T17:55:13.117Z,2.05
2022-10-19T17:57:40.281Z,2.20
2022-10-19T18:00:07.777Z,2.50
2022-10-19T18:02:35.529Z,2.17
2022-10-19T18:05:03.038Z,6.17
2022-10-19T18:07:29.561Z,6.22
2022-10-19T18:09:56.014Z,7.10
2022-10-19T18:12:22.838Z,7.05
2022-10-19T18:14:49.377Z,6.93
2022-10-19T18:17:15.908Z,3.90
2022-10-19T18:19:42.600Z,3.90
2022-10-19T18:22:09.141Z,5.28
2022-10-19T18:24:35.716Z,3.53
2022-10-19T18:27:02.396Z,4.20
2022-10-19T18:29:28.956Z,3.73
2022-10-19T18:31:55.752Z,4.45
2022-10-19T18:34:24.989Z,3.88
2022-10-19T18:36:52.414Z,3.28
2022-10-19T18:39:19.155Z,3.05
2022-10-19T18:41:45.917Z,3.40
2022-10-19T18:44:13.357Z,3.13
2022-10-19T19:01:44.678Z,3.38
2022-10-19T19:32:56.186Z,3.70
2022-10-19T19:50:19.674Z,2.90
2022-10-19T19:56:22.049Z,7.38
2022-10-19T20:01:55.040Z,2.85
2022-10-19T20:05:23.148Z,4.20
2022-10-19T20:17:51.769Z,2.33
2022-10-19T20:39:33.621Z,3.00
2022-10-19T20:45:23.137Z,2.35
2022-10-19T20:56:50.434Z,1.80
2022-10-19T21:00:07.275Z,1.90
2022-10-19T21:02:34.302Z,3.20
2022-10-19T21:05:04.023Z,13.65
2022-10-19T21:07:33.544Z,4.60
2022-10-19T21:10:32.830Z,5.60
2022-10-19T21:15:48.713Z,3.58
2022-10-19T21:18:40.756Z,4.03
2022-10-19T21:21:24.080Z,3.67
2022-10-19T21:27:31.610Z,3.10
2022-10-19T21:33:07.301Z,2.05
2022-10-19T21:36:09.604Z,1.90
2022-10-19T21:58:27.272Z,5.40
2022-10-19T22:01:45.904Z,4.80
2022-10-19T22:10:47.922Z,4.60
2022-10-19T22:13:55.755Z,4.78
2022-10-19T22:31:15.858Z,5.32
2022-10-19T22:38:27.336Z,3.58
2022-10-19T22:41:08.600Z,3.47
2022-10-19T22:47:10.702Z,3.33
2022-10-19T22:53:17.438Z,2.55
2022-10-19T22:55:44.153Z,2.90
2022-10-19T23:09:09.660Z,2.40
2022-10-19T23:15:21.796Z,2.03
2022-10-19T23:21:39.177Z,2.60
2022-10-19T23:24:23.478Z,1.90
2022-10-19T23:35:43.029Z,2.15
2022-10-19T23:40:53.892Z,1.97
2022-10-19T23:46:39.833Z,2.30
